Time;durP1;ratioP1;P1;durP2;ratioP2;P2;SDS_P1;SDS_P2;PMS_P1;PMS_P2;Temp;Humidity;BMP_temperature;BMP_pressure;BME280_temperature;BME280_humidity;BME280_pressure;Samples;Min_cycle;Max_cycle;Signal;HPM_P1;HPM_P2
2022/08/19 00:00:50;;;;;;;36.80;33.80;;;16.50;99.90;;;;;;6216703;23;20433;-82
2022/08/19 00:03:18;;;;;;;45.10;41.90;;;16.50;99.90;;;;;;6217308;23;20459;-82
2022/08/19 00:05:45;;;;;;;47.27;44.07;;;16.40;99.30;;;;;;6226750;23;20421;-82
2022/08/19 00:08:12;;;;;;;35.80;32.53;;;16.40;99.60;;;;;;6217359;23;20413;-82
2022/08/19 00:10:39;;;;;;;55.77;51.70;;;16.20;99.90;;;;;;6217109;23;20435;-82
2022/08/19 00:13:05;;;;;;;117.97;112.43;;;16.20;99.90;;;;;;6216618;23;20961;-82
2022/08/19 00:15:32;;;;;;;137.73;131.30;;;16.10;99.90;;;;;;6216110;23;20412;-81
2022/08/19 00:17:59;;;;;;;135.70;129.27;;;16.20;99.90;;;;;;6217098;23;20420;-82
2022/08/19 00:20:27;;;;;;;112.50;106.53;;;16.20;99.90;;;;;;6217156;23;20413;-82
2022/08/19 00:22:54;;;;;;;88.77;84.03;;;16.10;99.90;;;;;;6215981;23;20421;-82
2022/08/19 00:25:20;;;;;;;70.23;66.13;;;16.20;99.90;;;;;;6215301;23;20429;-82
2022/08/19 00:27:47;;;;;;;61.57;57.80;;;16.00;99.90;;;;;;6215407;23;20428;-81
2022/08/19 00:30:14;;;;;;;62.60;58.90;;;16.00;99.90;;;;;;6215957;23;20475;-81
2022/08/19 00:32:41;;;;;;;53.10;49.43;;;16.00;99.90;;;;;;6226226;23;20400;-82
2022/08/19 00:35:09;;;;;;;57.50;53.60;;;16.00;99.90;;;;;;6216138;23;20438;-82
2022/08/19 00:37:42;;;;;;;78.17;73.87;;;15.80;99.90;;;;;;6217037;23;20454;-82
2022/08/19 00:40:11;;;;;;;112.73;107.33;;;15.80;99.90;;;;;;6217100;23;20404;-82
2022/08/19 00:42:38;;;;;;;121.27;115.47;;;15.90;99.90;;;;;;6216751;23;20425;-82
2022/08/19 00:45:12;;;;;;;135.87;129.77;;;15.90;99.90;;;;;;6215678;23;20436;-82
2022/08/19 00:47:39;;;;;;;117.37;111.80;;;15.80;99.90;;;;;;6225952;23;20667;-82
2022/08/19 00:50:08;;;;;;;103.70;98.63;;;15.70;99.90;;;;;;6215861;23;20769;-82
2022/08/19 00:52:39;;;;;;;165.57;158.67;;;15.80;99.90;;;;;;6216673;23;20413;-82
2022/08/19 00:55:10;;;;;;;220.20;211.07;;;15.60;99.90;;;;;;6215924;23;20435;-81
2022/08/19 00:57:40;;;;;;;243.30;233.37;;;15.60;99.90;;;;;;6216863;23;20877;-82
2022/08/19 01:00:09;;;;;;;208.40;200.40;;;15.50;99.90;;;;;;6216700;23;20424;-82
2022/08/19 01:02:36;;;;;;;286.13;274.57;;;15.50;99.90;;;;;;6216379;23;20752;-81
2022/08/19 01:05:07;;;;;;;317.93;305.27;;;15.40;99.90;;;;;;6215590;23;20558;-81
2022/08/19 01:07:34;;;;;;;378.53;362.77;;;15.30;99.90;;;;;;6214771;23;20890;-82
2022/08/19 01:10:04;;;;;;;400.73;383.63;;;15.60;99.90;;;;;;6215663;23;20443;-82
2022/08/19 01:12:31;;;;;;;414.73;397.00;;;15.60;99.90;;;;;;6215857;23;20463;-82
2022/08/19 01:14:59;;;;;;;382.93;366.50;;;15.80;99.90;;;;;;6215473;23;20439;-82
2022/08/19 01:17:26;;;;;;;350.33;335.23;;;15.70;99.90;;;;;;6216278;23;20435;-82
2022/08/19 01:19:53;;;;;;;360.73;345.33;;;15.70;99.90;;;;;;6215817;23;20408;-80
2022/08/19 01:22:28;;;;;;;274.60;263.73;;;15.70;99.90;;;;;;6215917;23;20424;-82
2022/08/19 01:24:54;;;;;;;320.67;308.27;;;15.60;99.90;;;;;;6215779;23;20432;-82
2022/08/19 01:27:21;;;;;;;298.60;287.23;;;15.50;99.90;;;;;;6215950;23;20637;-82
2022/08/19 01:29:48;;;;;;;308.17;296.27;;;15.40;99.90;;;;;;6215947;23;20738;-81
2022/08/19 01:32:17;;;;;;;448.00;429.37;;;15.40;99.90;;;;;;6215652;23;20449;-82
2022/08/19 01:34:46;;;;;;;416.97;399.33;;;15.40;99.90;;;;;;6216028;23;20439;-82
2022/08/19 01:37:14;;;;;;;391.23;375.13;;;15.40;99.90;;;;;;6218593;23;20412;-82
2022/08/19 01:39:44;;;;;;;348.97;335.23;;;15.30;99.90;;;;;;6218174;23;20419;-82
2022/08/19 01:42:11;;;;;;;321.53;309.37;;;15.30;99.90;;;;;;6218135;23;20749;-81
2022/08/19 01:44:40;;;;;;;358.70;343.63;;;15.30;99.90;;;;;;6217281;23;20769;-82
2022/08/19 01:47:08;;;;;;;369.40;353.97;;;15.40;99.90;;;;;;6217369;23;20412;-82
2022/08/19 01:49:36;;;;;;;357.00;342.50;;;15.40;99.90;;;;;;6217640;23;20413;-81
2022/08/19 01:52:04;;;;;;;363.00;348.00;;;15.30;99.90;;;;;;6217613;23;20404;-82
2022/08/19 01:54:31;;;;;;;382.80;365.40;;;15.40;99.90;;;;;;6216606;23;20432;-81
2022/08/19 01:57:04;;;;;;;448.23;428.33;;;15.30;99.90;;;;;;6217084;23;20415;-82
2022/08/19 01:59:32;;;;;;;407.40;390.20;;;15.20;99.90;;;;;;6217399;23;20593;-82
2022/08/19 02:01:59;;;;;;;397.60;380.70;;;15.20;99.90;;;;;;6217449;23;20404;-82
2022/08/19 02:04:26;;;;;;;379.57;363.77;;;15.10;99.90;;;;;;6216958;23;20729;-81
2022/08/19 02:06:52;;;;;;;333.00;320.20;;;15.00;99.90;;;;;;6217160;23;20407;-82
2022/08/19 02:09:19;;;;;;;480.33;460.53;;;15.00;99.90;;;;;;6217375;23;20408;-82
2022/08/19 02:11:46;;;;;;;466.70;447.70;;;15.10;99.90;;;;;;6216949;23;20966;-82
2022/08/19 02:14:14;;;;;;;546.93;522.17;;;15.00;99.90;;;;;;6216781;23;20432;-82
2022/08/19 02:16:41;;;;;;;642.03;611.10;;;14.90;99.90;;;;;;6217320;23;20413;-82
2022/08/19 02:19:08;;;;;;;783.13;739.03;;;15.10;99.90;;;;;;6216792;23;20416;-81
2022/08/19 02:21:35;;;;;;;841.53;790.83;;;15.10;99.90;;;;;;6226890;23;20423;-81
2022/08/19 02:24:02;;;;;;;804.57;756.40;;;15.20;99.90;;;;;;6216968;23;20432;-80
2022/08/19 02:26:29;;;;;;;775.73;731.83;;;15.00;99.90;;;;;;6216916;23;20409;-82
2022/08/19 02:28:56;;;;;;;777.33;732.47;;;15.10;99.90;;;;;;6216258;23;20416;-82
2022/08/19 02:31:27;;;;;;;815.30;768.33;;;15.10;99.90;;;;;;6216843;23;20474;-81
2022/08/19 02:33:55;;;;;;;829.27;781.37;;;15.10;99.90;;;;;;6216711;23;20440;-81
2022/08/19 02:36:22;;;;;;;840.70;792.00;;;15.00;99.90;;;;;;6216942;23;20423;-81
2022/08/19 02:38:48;;;;;;;851.33;800.50;;;15.00;99.90;;;;;;6217487;23;20419;-82
2022/08/19 02:41:17;;;;;;;844.20;794.30;;;14.90;99.90;;;;;;6217999;23;20409;-82
2022/08/19 02:43:45;;;;;;;827.70;780.00;;;14.90;99.90;;;;;;6217624;23;20438;-81
2022/08/19 02:46:14;;;;;;;848.37;798.50;;;14.90;99.90;;;;;;6216430;23;20423;-82
2022/08/19 02:48:42;;;;;;;805.03;757.97;;;15.00;99.90;;;;;;6216502;23;20412;-81
2022/08/19 02:51:08;;;;;;;782.27;739.20;;;14.80;99.90;;;;;;6216506;23;20444;-82
2022/08/19 02:53:35;;;;;;;847.10;797.00;;;14.80;99.90;;;;;;6217549;23;20432;-82
2022/08/19 02:56:02;;;;;;;808.57;762.27;;;14.80;99.90;;;;;;6216776;23;20412;-81
2022/08/19 02:58:29;;;;;;;804.90;758.10;;;14.70;99.90;;;;;;6216485;23;20508;-82
2022/08/19 03:00:57;;;;;;;820.30;772.63;;;14.70;99.90;;;;;;6216630;23;20415;-80
2022/08/19 03:03:24;;;;;;;828.10;778.70;;;14.70;99.90;;;;;;6215727;23;21148;-81
2022/08/19 03:05:52;;;;;;;786.33;742.40;;;14.70;99.90;;;;;;6215563;23;20416;-81
2022/08/19 03:08:20;;;;;;;750.83;709.87;;;14.60;99.90;;;;;;6215936;23;20424;-81
2022/08/19 03:10:48;;;;;;;766.17;723.40;;;14.60;99.90;;;;;;6216287;23;20771;-81
2022/08/19 03:13:17;;;;;;;852.50;802.73;;;14.60;99.90;;;;;;6215938;23;20412;-82
2022/08/19 03:15:45;;;;;;;846.87;797.53;;;14.60;99.90;;;;;;6215981;23;20753;-81
2022/08/19 03:18:12;;;;;;;671.50;637.80;;;14.60;99.90;;;;;;6217736;23;20622;-82
2022/08/19 03:20:43;;;;;;;488.93;468.03;;;14.50;99.90;;;;;;6216372;23;20412;-84
2022/08/19 03:23:12;;;;;;;471.17;450.77;;;14.50;99.90;;;;;;6216542;23;20420;-83
2022/08/19 03:25:41;;;;;;;572.40;546.60;;;14.40;99.90;;;;;;6216759;23;20412;-82
2022/08/19 03:28:08;;;;;;;626.73;597.50;;;14.40;99.90;;;;;;6216598;23;20420;-83
2022/08/19 03:30:34;;;;;;;581.80;555.47;;;14.40;99.90;;;;;;6216737;23;20513;-82
2022/08/19 03:33:01;;;;;;;564.30;539.43;;;14.30;99.90;;;;;;6216247;23;20423;-82
2022/08/19 03:35:28;;;;;;;624.17;594.87;;;14.20;99.90;;;;;;6215919;23;20447;-83
2022/08/19 03:37:56;;;;;;;835.90;788.30;;;14.30;99.90;;;;;;6216379;23;20408;-83
2022/08/19 03:40:24;;;;;;;936.23;874.00;;;14.20;99.90;;;;;;6215967;23;20423;-83
2022/08/19 03:42:50;;;;;;;949.00;884.10;;;14.50;99.90;;;;;;6216192;23;20412;-84
2022/08/19 03:45:17;;;;;;;951.63;885.23;;;14.40;99.90;;;;;;6215765;23;20436;-82
2022/08/19 03:47:45;;;;;;;952.87;882.53;;;14.60;99.90;;;;;;6216129;23;20413;-82
2022/08/19 03:50:12;;;;;;;948.73;879.43;;;14.60;99.90;;;;;;6215962;23;20415;-82
2022/08/19 03:52:39;;;;;;;955.27;884.50;;;14.70;99.90;;;;;;6216642;23;20414;-82
2022/08/19 03:55:07;;;;;;;953.70;875.23;;;14.80;99.90;;;;;;6216090;23;20460;-84
2022/08/19 03:57:35;;;;;;;947.90;872.67;;;14.80;99.90;;;;;;6217009;23;20420;-84
2022/08/19 04:00:04;;;;;;;950.23;872.57;;;15.10;99.90;;;;;;6217496;23;20418;-84
2022/08/19 04:02:31;;;;;;;928.97;857.13;;;15.20;99.90;;;;;;6216092;23;20510;-84
2022/08/19 04:04:57;;;;;;;954.20;881.40;;;15.40;99.90;;;;;;6216395;23;20436;-83
2022/08/19 04:07:24;;;;;;;961.87;885.53;;;15.30;99.90;;;;;;6216368;23;20419;-83
2022/08/19 04:09:51;;;;;;;971.13;892.40;;;15.40;99.90;;;;;;6217296;23;20419;-84
2022/08/19 04:12:20;;;;;;;964.83;885.63;;;15.40;99.90;;;;;;6217323;23;20408;-84
2022/08/19 04:14:48;;;;;;;973.17;890.70;;;15.40;99.90;;;;;;6217462;23;20958;-83
2022/08/19 04:17:14;;;;;;;973.80;889.23;;;15.50;99.90;;;;;;6217359;23;20419;-83
2022/08/19 04:19:42;;;;;;;984.20;897.87;;;15.40;99.90;;;;;;6216848;23;20423;-84
2022/08/19 04:22:11;;;;;;;973.10;884.73;;;15.40;99.90;;;;;;6217119;23;20466;-83
2022/08/19 04:24:38;;;;;;;974.90;885.80;;;15.50;99.90;;;;;;6216256;23;20963;-83
2022/08/19 04:27:16;;;;;;;970.83;882.77;;;15.50;99.90;;;;;;6216950;23;20409;-83
2022/08/19 04:29:43;;;;;;;983.33;893.93;;;15.50;99.90;;;;;;6227500;23;20510;-84
2022/08/19 04:32:11;;;;;;;977.47;889.93;;;15.40;99.90;;;;;;6218481;23;20408;-84
2022/08/19 04:34:55;;;;;;;967.00;885.10;;;15.30;99.90;;;;;;6218015;23;20432;-84
2022/08/19 04:37:39;;;;;;;955.23;879.60;;;15.20;99.90;;;;;;6218751;23;20396;-84
2022/08/19 04:46:53;;;;;;;928.60;856.47;;;14.90;99.90;;;;;;6180258;23;20408;-83
2022/08/19 04:49:22;;;;;;;924.67;851.77;;;14.90;99.90;;;;;;6206653;23;20423;-84
2022/08/19 04:54:34;;;;;;;919.63;845.83;;;15.10;99.90;;;;;;6216373;23;20437;-83
2022/08/19 04:57:01;;;;;;;909.97;835.67;;;15.00;99.90;;;;;;6218386;23;20412;-84
2022/08/19 05:02:48;;;;;;;916.03;833.47;;;15.30;99.90;;;;;;6216960;23;20515;-84
2022/08/19 05:05:23;;;;;;;882.80;800.43;;;15.40;99.90;;;;;;6215384;23;20435;-84
2022/08/19 05:08:30;;;;;;;887.90;807.27;;;15.60;99.90;;;;;;6218629;23;20503;-84
2022/08/19 05:10:58;;;;;;;888.57;811.37;;;15.70;99.90;;;;;;6211697;23;20472;-83
2022/08/19 05:13:35;;;;;;;888.63;815.03;;;15.70;99.90;;;;;;6218142;23;20433;-84
2022/08/19 05:16:34;;;;;;;880.13;808.73;;;15.60;99.90;;;;;;6218002;23;20404;-84
2022/08/19 05:22:38;;;;;;;846.77;787.03;;;15.80;99.90;;;;;;6218883;23;20488;-83
2022/08/19 05:25:08;;;;;;;831.10;774.40;;;15.90;99.90;;;;;;6222619;23;20444;-81
2022/08/19 05:27:39;;;;;;;827.70;772.00;;;15.90;99.90;;;;;;6222641;23;20492;-82
2022/08/19 05:30:07;;;;;;;782.33;731.03;;;16.00;99.90;;;;;;6222747;23;20991;-81
2022/08/19 05:32:33;;;;;;;728.90;682.53;;;16.10;99.90;;;;;;6220596;23;20409;-81
2022/08/19 05:35:00;;;;;;;648.37;610.50;;;16.30;99.90;;;;;;6221870;23;20435;-82
2022/08/19 05:37:27;;;;;;;647.53;610.93;;;16.40;99.90;;;;;;6222978;23;20437;-81
2022/08/19 05:39:55;;;;;;;682.63;643.23;;;16.50;99.90;;;;;;6220857;23;20441;-81
2022/08/19 05:42:22;;;;;;;685.47;645.40;;;16.60;99.90;;;;;;6223557;23;20434;-83
2022/08/19 05:44:54;;;;;;;615.13;579.60;;;16.90;99.90;;;;;;6219053;23;20478;-80
2022/08/19 05:47:21;;;;;;;462.70;438.00;;;17.20;99.90;;;;;;6220548;23;20427;-81
2022/08/19 05:49:50;;;;;;;439.40;417.10;;;17.50;99.90;;;;;;6218797;23;20412;-81
2022/08/19 05:52:17;;;;;;;360.97;342.63;;;17.80;99.90;;;;;;6219329;23;20405;-80
2022/08/19 05:54:45;;;;;;;239.03;226.07;;;18.10;99.90;;;;;;6219927;23;20434;-80
2022/08/19 05:57:11;;;;;;;244.60;231.80;;;18.30;99.90;;;;;;6218718;23;20412;-81
2022/08/19 05:59:54;;;;;;;210.20;198.50;;;18.50;99.90;;;;;;6218774;23;20423;-79
2022/08/19 06:02:21;;;;;;;164.13;154.10;;;18.50;99.90;;;;;;6224384;23;20434;-78
2022/08/19 06:04:49;;;;;;;162.67;152.37;;;18.60;99.90;;;;;;6215576;23;20441;-79
2022/08/19 06:07:19;;;;;;;193.13;181.33;;;18.70;99.90;;;;;;6216538;23;20419;-79
2022/08/19 06:09:46;;;;;;;248.73;236.40;;;18.60;99.90;;;;;;6224936;23;20442;-79
2022/08/19 06:12:13;;;;;;;257.47;245.40;;;18.70;99.90;;;;;;6215559;23;20462;-79
2022/08/19 06:14:41;;;;;;;282.10;269.20;;;18.70;99.90;;;;;;6224903;23;20940;-79
2022/08/19 06:17:13;;;;;;;293.00;278.03;;;18.70;99.90;;;;;;6217836;23;20412;-81
2022/08/19 06:19:43;;;;;;;306.70;292.77;;;18.80;99.90;;;;;;6227540;23;20417;-81
2022/08/19 06:22:23;;;;;;;288.93;275.53;;;18.80;99.90;;;;;;6217401;23;20439;-82
2022/08/19 06:24:55;;;;;;;259.10;246.63;;;18.80;99.90;;;;;;6219933;23;20437;-82
2022/08/19 06:27:29;;;;;;;273.87;260.73;;;18.80;99.90;;;;;;6229598;23;20429;-82
2022/08/19 06:29:57;;;;;;;294.00;281.17;;;18.80;99.90;;;;;;6229784;23;20445;-80
2022/08/19 06:32:38;;;;;;;;;;;;;;;;;;;;;
2022/08/19 06:35:10;;;;;;;293.20;278.97;;;18.70;99.90;;;;;;6228970;23;20424;-81
2022/08/19 06:37:37;;;;;;;269.27;255.70;;;18.90;99.90;;;;;;6229577;23;20428;-82
2022/08/19 06:40:05;;;;;;;258.23;245.63;;;19.00;99.90;;;;;;6219659;23;20450;-81
2022/08/19 06:42:42;;;;;;;239.13;226.90;;;19.10;99.90;;;;;;6228730;23;21057;-82
2022/08/19 06:45:10;;;;;;;182.50;170.93;;;19.10;99.90;;;;;;6229094;23;20801;-81
2022/08/19 06:47:45;;;;;;;140.30;130.97;;;19.20;99.90;;;;;;6229313;23;20475;-81
2022/08/19 06:50:12;;;;;;;149.43;139.87;;;19.30;99.90;;;;;;6228977;23;20384;-81
2022/08/19 06:52:39;;;;;;;129.50;120.43;;;19.30;99.90;;;;;;6228747;23;20408;-82
2022/08/19 06:55:07;;;;;;;151.10;141.70;;;19.40;99.90;;;;;;6227356;23;20428;-81
2022/08/19 06:57:34;;;;;;;99.30;91.60;;;19.50;99.90;;;;;;6217244;23;20497;-82
2022/08/19 07:00:02;;;;;;;66.07;59.37;;;19.50;99.90;;;;;;6219380;23;20411;-82
2022/08/19 07:02:29;;;;;;;68.57;61.27;;;19.40;99.90;;;;;;6218600;23;20437;-81
2022/08/19 07:04:58;;;;;;;75.57;67.77;;;19.50;99.90;;;;;;6218660;23;20457;-81
2022/08/19 07:07:25;;;;;;;76.40;68.87;;;19.60;99.90;;;;;;6218761;23;20416;-82
2022/08/19 07:09:52;;;;;;;73.37;65.97;;;19.80;99.90;;;;;;6219668;23;20538;-82
2022/08/19 07:12:19;;;;;;;74.90;67.13;;;19.80;99.90;;;;;;6228917;23;20418;-82
2022/08/19 07:14:48;;;;;;;75.33;59.30;;;19.80;99.90;;;;;;6217700;23;20451;-82
2022/08/19 07:17:14;;;;;;;66.83;52.17;;;19.90;99.90;;;;;;6219497;23;20469;-82
2022/08/19 07:19:42;;;;;;;63.70;48.33;;;20.20;99.20;;;;;;6220011;23;20802;-82
2022/08/19 07:22:11;;;;;;;75.93;49.30;;;20.40;98.40;;;;;;6219234;23;20435;-82
2022/08/19 07:24:39;;;;;;;75.30;48.80;;;20.60;97.50;;;;;;6217053;23;20434;-82
2022/08/19 07:27:07;;;;;;;74.90;52.30;;;20.70;96.30;;;;;;6217295;23;20420;-82
2022/08/19 07:29:36;;;;;;;72.53;51.77;;;20.80;95.40;;;;;;6218466;23;20411;-82
2022/08/19 07:32:05;;;;;;;82.37;51.40;;;20.70;95.40;;;;;;6219117;23;20411;-83
2022/08/19 07:34:34;;;;;;;93.60;64.85;;;20.50;95.30;;;;;;6226201;23;20414;-84
2022/08/19 07:37:01;;;;;;;79.93;55.30;;;20.50;95.70;;;;;;6217348;23;20637;-82
2022/08/19 07:39:31;;;;;;;91.97;55.87;;;20.30;95.20;;;;;;6217829;23;20792;-84
2022/08/19 07:42:00;;;;;;;85.90;53.37;;;20.50;95.30;;;;;;6228145;23;20430;-84
2022/08/19 07:44:27;;;;;;;84.27;50.77;;;20.90;94.70;;;;;;6217257;23;20428;-84
2022/08/19 07:46:57;;;;;;;77.53;48.33;;;21.40;93.50;;;;;;6227086;23;20427;-84
2022/08/19 07:49:24;;;;;;;72.50;47.90;;;21.50;90.90;;;;;;6216601;23;20415;-82
2022/08/19 07:51:56;;;;;;;76.83;48.23;;;21.40;91.10;;;;;;6217264;23;20415;-82
2022/08/19 07:54:25;;;;;;;77.97;49.67;;;21.60;89.30;;;;;;6216784;23;20439;-84
2022/08/19 07:56:53;;;;;;;83.83;49.70;;;21.60;87.50;;;;;;6217058;23;20429;-84
2022/08/19 07:59:21;;;;;;;65.13;46.20;;;21.90;88.20;;;;;;6217833;23;20424;-84
2022/08/19 08:01:49;;;;;;;75.13;45.90;;;22.20;86.40;;;;;;6216817;23;20414;-84
2022/08/19 08:09:45;;;;;;;68.00;43.23;;;23.50;76.80;;;;;;6216874;23;20405;-83
2022/08/19 08:12:16;;;;;;;60.80;37.80;;;23.70;74.20;;;;;;6217720;23;20431;-84
2022/08/19 08:15:02;;;;;;;60.83;42.27;;;23.60;70.50;;;;;;6217415;23;20439;-85
2022/08/19 08:17:30;;;;;;;56.83;38.27;;;23.50;69.50;;;;;;6217310;23;20403;-84
2022/08/19 08:19:57;;;;;;;57.13;39.07;;;23.20;68.20;;;;;;6217098;23;20449;-84
2022/08/19 08:25:12;;;;;;;58.03;39.43;;;22.30;73.90;;;;;;6216516;23;20760;-84
2022/08/19 08:27:42;;;;;;;54.77;40.57;;;22.20;75.50;;;;;;6216662;23;20422;-82
2022/08/19 08:30:11;;;;;;;58.37;37.93;;;22.50;74.20;;;;;;6216828;23;20419;-85
2022/08/19 08:32:39;;;;;;;61.27;40.73;;;22.40;72.30;;;;;;6217171;23;20411;-84
2022/08/19 08:35:07;;;;;;;54.50;36.27;;;22.40;73.80;;;;;;6216282;23;20430;-85
2022/08/19 08:37:34;;;;;;;51.20;34.90;;;22.40;72.80;;;;;;6216534;23;20423;-84
2022/08/19 08:40:06;;;;;;;46.07;31.60;;;22.60;70.40;;;;;;6217273;23;20419;-84
2022/08/19 08:42:38;;;;;;;46.10;34.90;;;22.40;69.10;;;;;;6216856;23;20513;-84
2022/08/19 08:45:14;;;;;;;51.30;34.83;;;22.40;69.30;;;;;;6217100;23;20744;-85
2022/08/19 08:47:46;;;;;;;51.93;34.37;;;22.50;68.50;;;;;;6231898;23;20414;-85
2022/08/19 08:50:16;;;;;;;49.97;35.70;;;22.40;68.20;;;;;;6222934;23;20403;-86
2022/08/19 08:52:47;;;;;;;50.00;30.50;;;22.40;68.10;;;;;;6231526;23;20414;-85
2022/08/19 08:55:16;;;;;;;42.13;29.67;;;22.80;67.60;;;;;;6228429;23;20441;-84
2022/08/19 08:57:55;;;;;;;39.47;27.77;;;23.10;63.60;;;;;;6218440;23;20408;-86
2022/08/19 09:00:30;;;;;;;38.43;26.20;;;23.60;59.90;;;;;;6219203;23;20396;-85
2022/08/19 09:02:59;;;;;;;36.97;25.97;;;23.80;56.80;;;;;;6225994;23;20434;-84
2022/08/19 09:05:34;;;;;;;35.13;26.20;;;24.00;54.10;;;;;;6216050;23;20603;-84
2022/08/19 09:08:08;;;;;;;35.83;25.10;;;24.00;54.00;;;;;;6216870;23;20396;-84
2022/08/19 09:10:38;;;;;;;36.90;25.20;;;24.30;53.10;;;;;;6216820;23;20479;-84
2022/08/19 09:13:12;;;;;;;34.13;23.37;;;24.50;52.40;;;;;;6217089;23;20431;-84
2022/08/19 09:16:03;;;;;;;35.83;23.80;;;24.60;51.00;;;;;;6216489;23;20667;-83
2022/08/19 09:18:40;;;;;;;27.20;20.30;;;24.60;50.40;;;;;;6218111;23;20393;-82
2022/08/19 09:21:34;;;;;;;30.27;18.30;;;25.00;46.20;;;;;;6216517;23;20395;-81
2022/08/19 09:24:01;;;;;;;21.47;17.00;;;25.50;43.20;;;;;;6215930;23;20965;-82
2022/08/19 09:26:29;;;;;;;28.30;16.30;;;25.70;39.50;;;;;;6216576;23;20412;-82
2022/08/19 09:28:57;;;;;;;23.90;15.87;;;26.30;36.90;;;;;;6216321;23;20922;-82
2022/08/19 09:31:28;;;;;;;28.10;17.67;;;27.00;34.40;;;;;;6216423;23;20798;-82
2022/08/19 09:34:04;;;;;;;26.23;16.90;;;26.90;32.00;;;;;;6216911;23;20428;-82
2022/08/19 09:36:33;;;;;;;20.80;15.33;;;27.40;32.30;;;;;;6226425;23;20486;-82
2022/08/19 09:39:00;;;;;;;19.10;13.63;;;26.80;30.60;;;;;;6215052;23;20902;-82
2022/08/19 09:41:28;;;;;;;18.40;16.40;;;26.90;32.00;;;;;;6215616;23;20774;-82
2022/08/19 09:44:07;;;;;;;24.13;14.37;;;27.00;32.10;;;;;;6214917;23;20440;-81
2022/08/19 09:46:35;;;;;;;25.07;17.97;;;26.70;33.70;;;;;;6216366;23;20393;-82
2022/08/19 09:49:07;;;;;;;22.50;16.80;;;27.30;29.80;;;;;;6215777;23;20408;-82
2022/08/19 09:51:34;;;;;;;25.83;18.73;;;27.10;32.20;;;;;;6215823;23;20392;-82
2022/08/19 09:54:07;;;;;;;24.50;16.40;;;27.40;27.70;;;;;;6215209;23;20430;-82
2022/08/19 09:56:33;;;;;;;28.83;20.30;;;27.20;30.00;;;;;;6216291;23;20392;-82
2022/08/19 09:59:01;;;;;;;23.20;16.93;;;26.50;29.70;;;;;;6217692;23;20407;-82
2022/08/19 10:01:30;;;;;;;25.47;19.57;;;26.80;32.00;;;;;;6217814;23;20430;-82
2022/08/19 10:07:40;;;;;;;;;;;;;;;;;;;;;
2022/08/19 10:10:12;;;;;;;28.30;18.30;;;26.10;31.40;;;;;;6227912;23;20403;-85
2022/08/19 10:45:05;;;;;;;25.50;15.87;;;27.50;26.10;;;;;;5953287;23;20426;-85
2022/08/19 11:01:38;;;;;;;20.70;11.30;;;28.80;17.60;;;;;;6175711;23;20852;-85
2022/08/19 11:07:28;;;;;;;23.10;11.07;;;29.30;15.00;;;;;;6161651;23;20405;-83
2022/08/19 11:09:55;;;;;;;18.87;12.17;;;29.30;14.90;;;;;;6191793;23;20751;-82
2022/08/19 11:12:22;;;;;;;19.80;12.50;;;29.60;12.90;;;;;;6202366;23;20405;-82
2022/08/19 11:14:50;;;;;;;13.20;11.20;;;29.90;12.30;;;;;;6191673;23;20434;-82
2022/08/19 11:17:18;;;;;;;16.73;11.60;;;30.40;11.10;;;;;;6193770;23;20417;-83
2022/08/19 11:19:44;;;;;;;16.60;12.00;;;31.50;6.90;;;;;;6192988;23;20419;-83
2022/08/19 11:22:11;;;;;;;18.73;11.70;;;31.10;6.70;;;;;;6192652;23;20416;-83
2022/08/19 11:24:38;;;;;;;17.13;11.70;;;31.60;5.10;;;;;;6192327;23;20415;-83
2022/08/19 11:27:08;;;;;;;14.20;11.97;;;31.60;3.10;;;;;;6195339;23;20178;-82
2022/08/19 11:29:36;;;;;;;18.77;11.40;;;31.30;3.70;;;;;;6194746;23;20424;-83
2022/08/19 11:32:06;;;;;;;14.60;12.23;;;30.70;5.00;;;;;;6222922;23;20396;-83
2022/08/19 11:34:35;;;;;;;17.80;11.60;;;29.40;7.20;;;;;;6221496;23;20440;-83
2022/08/19 11:37:03;;;;;;;22.07;11.67;;;28.90;9.30;;;;;;6221901;23;20408;-83
2022/08/19 11:39:31;;;;;;;14.93;10.80;;;30.20;10.00;;;;;;6222698;23;20416;-83
2022/08/19 11:41:59;;;;;;;16.33;9.90;;;30.30;6.20;;;;;;6224116;23;20412;-83
2022/08/19 11:44:28;;;;;;;16.37;12.00;;;29.50;8.10;;;;;;6222680;23;20459;-83
2022/08/19 11:46:55;;;;;;;15.27;12.77;;;28.80;10.20;;;;;;6222615;23;20412;-82
2022/08/19 11:49:22;;;;;;;17.20;12.33;;;28.40;11.30;;;;;;6222382;23;20422;-82
2022/08/19 11:51:50;;;;;;;17.73;11.97;;;29.00;10.30;;;;;;6221618;23;20755;-82
2022/08/19 11:54:18;;;;;;;18.53;12.60;;;29.20;7.50;;;;;;6222711;23;20439;-82
2022/08/19 11:56:47;;;;;;;16.07;11.80;;;28.20;8.90;;;;;;6222068;23;20475;-85
2022/08/19 11:59:14;;;;;;;14.60;11.60;;;28.10;11.50;;;;;;6221655;23;20412;-83
2022/08/19 12:01:42;;;;;;;13.80;10.50;;;27.80;13.00;;;;;;6221467;23;20412;-82
2022/08/19 12:04:09;;;;;;;16.50;11.43;;;28.60;9.30;;;;;;6222459;23;20428;-83
2022/08/19 12:06:39;;;;;;;18.70;10.33;;;29.90;6.30;;;;;;6221488;23;20412;-83
2022/08/19 12:09:11;;;;;;;17.00;11.53;;;31.30;2.00;;;;;;6220478;23;20402;-84
2022/08/19 12:11:39;;;;;;;19.03;13.30;;;31.30;1.20;;;;;;6221002;23;20403;-86
2022/08/19 12:14:06;;;;;;;17.53;12.47;;;31.70;1.00;;;;;;6231199;23;20451;-86
2022/08/19 12:16:33;;;;;;;14.90;10.33;;;30.60;2.10;;;;;;6225632;23;20502;-86
2022/08/19 12:19:03;;;;;;;16.17;10.50;;;30.60;2.30;;;;;;6220293;23;20799;-84
2022/08/19 12:21:30;;;;;;;16.50;9.17;;;29.30;2.60;;;;;;6220640;23;20451;-84
2022/08/19 12:23:59;;;;;;;14.27;8.77;;;28.80;6.80;;;;;;6218820;23;20428;-84
2022/08/19 12:26:28;;;;;;;11.53;7.87;;;28.10;5.90;;;;;;6219962;23;20411;-85
2022/08/19 12:28:55;;;;;;;10.30;7.73;;;27.70;7.40;;;;;;6220209;23;20740;-84
2022/08/19 12:31:22;;;;;;;13.27;8.10;;;27.60;5.40;;;;;;6220233;23;20443;-83
2022/08/19 12:33:49;;;;;;;12.27;7.50;;;28.50;4.60;;;;;;6218716;23;20451;-84
2022/08/19 12:36:17;;;;;;;12.37;8.97;;;28.40;2.10;;;;;;6218471;23;20412;-84
2022/08/19 12:38:44;;;;;;;13.50;8.87;;;28.40;3.70;;;;;;6221150;23;20412;-83
2022/08/19 12:41:18;;;;;;;16.73;9.20;;;28.60;4.00;;;;;;6219875;23;20415;-84
2022/08/19 12:43:49;;;;;;;15.77;9.00;;;28.40;4.80;;;;;;6219669;23;20486;-83
2022/08/19 12:46:16;;;;;;;18.67;8.97;;;28.60;3.50;;;;;;6220221;23;20367;-84
2022/08/19 12:48:44;;;;;;;14.30;6.53;;;29.10;2.50;;;;;;6219789;23;20419;-85
2022/08/19 12:51:14;;;;;;;11.20;8.00;;;30.10;1.00;;;;;;6220118;23;20419;-85
2022/08/19 12:53:41;;;;;;;13.77;8.60;;;29.70;1.00;;;;;;6220855;23;20440;-82
2022/08/19 12:56:09;;;;;;;10.70;6.93;;;30.50;1.00;;;;;;6218731;23;20479;-84
2022/08/19 12:58:36;;;;;;;15.67;8.33;;;30.70;1.00;;;;;;6219648;23;20434;-84
2022/08/19 13:01:11;;;;;;;15.33;7.97;;;31.40;1.00;;;;;;6231412;23;20471;-84
2022/08/19 13:03:38;;;;;;;9.67;7.10;;;32.60;1.00;;;;;;6220241;23;20431;-84
2022/08/19 13:06:05;;;;;;;10.90;6.27;;;32.00;1.00;;;;;;6219961;23;20412;-84
2022/08/19 13:08:31;;;;;;;12.00;7.13;;;30.70;1.00;;;;;;6219601;23;20416;-84
2022/08/19 13:10:59;;;;;;;17.10;9.17;;;30.90;1.00;;;;;;6220727;23;20412;-84
2022/08/19 13:13:26;;;;;;;13.77;7.50;;;31.40;1.00;;;;;;6220249;23;20482;-85
2022/08/19 13:15:53;;;;;;;10.23;6.93;;;32.40;1.00;;;;;;6221323;23;20412;-84
2022/08/19 13:18:21;;;;;;;13.50;7.23;;;33.10;1.00;;;;;;6219596;23;20408;-84
2022/08/19 13:20:48;;;;;;;10.50;7.70;;;33.10;1.00;;;;;;6219936;23;20902;-84
2022/08/19 13:23:15;;;;;;;9.83;6.70;;;32.60;1.00;;;;;;6220630;23;20476;-85
2022/08/19 13:25:42;;;;;;;9.13;5.50;;;32.70;1.00;;;;;;6218683;23;20394;-84
2022/08/19 13:34:31;;;;;;;13.60;5.40;;;32.70;1.00;;;;;;6164951;23;20423;-83
2022/08/19 13:36:58;;;;;;;11.77;6.07;;;33.20;1.00;;;;;;6219059;23;20399;-82
2022/08/19 13:39:25;;;;;;;8.17;5.37;;;32.90;1.00;;;;;;6219425;23;20415;-83
2022/08/19 13:41:52;;;;;;;12.80;7.30;;;33.10;1.00;;;;;;6218571;23;20382;-82
2022/08/19 13:44:20;;;;;;;11.90;6.57;;;31.50;1.00;;;;;;6217548;23;20447;-82
2022/08/19 13:46:48;;;;;;;7.30;5.07;;;31.20;1.00;;;;;;6218549;23;20703;-82
2022/08/19 13:49:16;;;;;;;7.23;4.83;;;31.10;1.00;;;;;;6219265;23;20386;-82
2022/08/19 13:51:44;;;;;;;12.17;6.70;;;31.20;1.00;;;;;;6218630;23;20799;-83
2022/08/19 13:54:12;;;;;;;12.57;7.07;;;31.50;1.00;;;;;;6218177;23;20515;-82
2022/08/19 13:56:42;;;;;;;9.57;5.40;;;30.70;1.00;;;;;;6227936;23;20412;-82